Time;durP1;ratioP1;P1;durP2;ratioP2;P2;SDS_P1;SDS_P2;PMS_P1;PMS_P2;Temp;Humidity;BMP_temperature;BMP_pressure;BME280_temperature;BME280_humidity;BME280_pressure;Samples;Min_cycle;Max_cycle;Signal;HPM_P1;HPM_P2
2022/03/28 05:01:46;;;;;;;16.95;8.80;;;5.20;84.80;;;;;;6137535;22;21068;31
2022/03/28 05:04:12;;;;;;;19.52;9.25;;;5.20;85.80;;;;;;6108487;23;20085;-81
2022/03/28 05:06:38;;;;;;;19.60;9.45;;;5.20;86.20;;;;;;6132926;23;20283;-82
2022/03/28 05:09:03;;;;;;;17.70;9.25;;;5.20;86.50;;;;;;6135003;23;20074;-81
2022/03/28 05:11:30;;;;;;;19.45;9.57;;;5.10;86.20;;;;;;6087366;23;20068;-82
2022/03/28 05:13:58;;;;;;;17.75;8.50;;;5.20;86.10;;;;;;6133280;23;20028;-82
2022/03/28 05:16:24;;;;;;;17.60;8.15;;;5.20;85.70;;;;;;6132513;23;20037;-83
2022/03/28 05:18:50;;;;;;;18.00;9.02;;;5.20;85.10;;;;;;6108982;23;20002;-82
2022/03/28 05:21:15;;;;;;;17.02;8.65;;;5.30;84.70;;;;;;6134452;23;20012;-82
2022/03/28 05:23:41;;;;;;;17.13;8.07;;;5.30;84.50;;;;;;6085735;23;20399;-81
2022/03/28 05:26:07;;;;;;;17.10;8.65;;;5.30;85.50;;;;;;6108329;23;20086;-82
2022/03/28 05:28:32;;;;;;;20.63;9.65;;;5.30;85.30;;;;;;6132871;23;20013;-82
2022/03/28 05:30:58;;;;;;;17.13;8.85;;;5.30;85.40;;;;;;6132180;23;20065;-83
2022/03/28 05:33:25;;;;;;;15.70;8.88;;;5.30;85.40;;;;;;6108366;23;20084;-81
2022/03/28 05:35:52;;;;;;;20.92;9.73;;;5.30;85.60;;;;;;6134566;23;19990;-83
2022/03/28 05:38:18;;;;;;;21.13;8.38;;;5.30;85.50;;;;;;6108435;23;20009;-82
2022/03/28 05:40:44;;;;;;;18.77;9.15;;;5.30;85.50;;;;;;6134525;23;20010;-82
2022/03/28 05:43:13;;;;;;;15.38;9.10;;;5.40;85.20;;;;;;6107739;23;20041;-82
2022/03/28 05:45:39;;;;;;;17.58;8.68;;;5.50;84.90;;;;;;6132197;23;20036;-81
2022/03/28 05:48:05;;;;;;;17.15;8.93;;;5.50;84.80;;;;;;6107592;23;20288;-82
2022/03/28 05:50:30;;;;;;;18.92;8.93;;;5.70;84.50;;;;;;6132880;23;20009;-82
2022/03/28 05:52:57;;;;;;;21.75;9.02;;;5.70;84.00;;;;;;6134130;23;20006;-81
2022/03/28 05:55:28;;;;;;;18.90;8.73;;;5.70;83.90;;;;;;6134373;23;20057;-82
2022/03/28 05:57:54;;;;;;;18.20;8.93;;;5.80;84.00;;;;;;6108274;23;20130;-81
2022/03/28 06:00:20;;;;;;;19.90;9.40;;;5.80;84.00;;;;;;6132387;23;20016;-82
2022/03/28 06:02:49;;;;;;;17.40;9.13;;;5.80;84.20;;;;;;6152535;23;20099;-82
2022/03/28 06:05:15;;;;;;;18.80;8.60;;;5.80;84.00;;;;;;6160435;23;20069;-83
2022/03/28 06:07:41;;;;;;;15.52;7.97;;;5.80;84.10;;;;;;6161827;23;20265;-83
2022/03/28 06:10:07;;;;;;;19.52;8.70;;;6.00;83.90;;;;;;6163334;23;20009;-83
2022/03/28 06:12:33;;;;;;;18.77;9.77;;;6.20;83.60;;;;;;6162769;23;20006;-82
2022/03/28 06:14:59;;;;;;;20.77;9.20;;;6.40;82.60;;;;;;6163882;23;20326;-82
2022/03/28 06:17:26;;;;;;;19.15;9.98;;;6.40;81.90;;;;;;6160974;23;20084;-81
2022/03/28 06:20:11;;;;;;;17.70;9.02;;;6.60;81.20;;;;;;6162679;23;20006;-81
2022/03/28 06:22:37;;;;;;;16.50;9.10;;;6.70;80.70;;;;;;6162432;23;20202;-80
2022/03/28 06:25:16;;;;;;;17.70;8.93;;;6.70;80.60;;;;;;6161914;23;20098;-81
2022/03/28 06:28:09;;;;;;;17.25;9.65;;;6.60;80.10;;;;;;6162578;23;20017;-80
2022/03/28 06:30:35;;;;;;;;;;;6.60;79.90;;;;;;6136261;23;20009;-83
2022/03/28 06:34:01;;;;;;;18.90;9.60;;;6.60;79.80;;;;;;6137852;23;19951;-83
2022/03/28 06:36:52;;;;;;;20.77;10.02;;;6.70;79.70;;;;;;6143127;23;20013;-82
2022/03/28 06:39:40;;;;;;;16.48;9.07;;;6.80;79.60;;;;;;6162386;23;20177;-83
2022/03/28 06:42:07;;;;;;;18.75;9.95;;;6.90;79.60;;;;;;6163398;23;20236;-83
2022/03/28 06:44:33;;;;;;;20.67;9.43;;;7.00;79.20;;;;;;6164487;23;20001;-83
2022/03/28 06:46:59;;;;;;;19.85;9.43;;;7.10;78.90;;;;;;6163449;23;20087;-82
2022/03/28 06:49:29;;;;;;;17.23;9.25;;;7.20;78.70;;;;;;6137142;23;20013;-85
2022/03/28 06:51:54;;;;;;;19.88;9.38;;;7.30;78.90;;;;;;6138093;23;20021;-83
2022/03/28 07:02:10;;;;;;;19.98;8.90;;;7.80;77.10;;;;;;6105095;23;20244;-84
2022/03/28 07:05:01;;;;;;;20.48;10.15;;;7.90;76.60;;;;;;6108052;23;20028;-83
2022/03/28 07:07:27;;;;;;;18.55;9.95;;;8.10;76.40;;;;;;6106984;23;20001;-83
2022/03/28 07:09:53;;;;;;;22.05;9.90;;;8.20;76.00;;;;;;6107417;23;20002;-83
2022/03/28 07:12:19;;;;;;;18.00;10.07;;;8.20;75.70;;;;;;6107280;23;20001;-83
2022/03/28 07:14:50;;;;;;;23.60;10.80;;;8.30;75.40;;;;;;6107965;23;20069;-83
2022/03/28 07:17:56;;;;;;;19.02;10.52;;;8.40;75.40;;;;;;6106785;23;20020;-83
2022/03/28 07:20:24;;;;;;;19.65;8.90;;;8.40;75.00;;;;;;6106379;23;20301;-82
2022/03/28 07:22:51;;;;;;;24.73;10.52;;;8.50;75.10;;;;;;6107448;23;20006;-83
2022/03/28 07:25:33;;;;;;;19.63;10.07;;;8.60;74.80;;;;;;6106773;23;20289;-83
2022/03/28 07:27:58;;;;;;;21.42;10.48;;;8.70;74.60;;;;;;6107460;23;20009;-83
2022/03/28 07:30:41;;;;;;;18.10;10.32;;;8.80;74.60;;;;;;6104985;23;20006;-81
2022/03/28 09:09:19;;;;;;;24.80;11.60;;;14.50;61.50;;;;;;6145826;22;20744;-81
2022/03/28 09:16:07;;;;;;;35.88;12.18;;;14.80;60.30;;;;;;6195417;23;20005;-79
2022/03/28 09:21:50;;;;;;;22.38;11.82;;;15.10;59.00;;;;;;6181741;23;20035;-81
2022/03/28 09:24:16;;;;;;;29.23;13.82;;;15.30;58.30;;;;;;6193972;23;20056;-81
2022/03/28 09:26:43;;;;;;;25.17;12.02;;;15.40;57.10;;;;;;6151593;23;20077;-82
2022/03/28 09:29:31;;;;;;;28.13;13.73;;;15.50;56.80;;;;;;6135296;23;20009;-81
2022/03/28 09:31:56;;;;;;;25.27;12.43;;;15.60;56.90;;;;;;6139264;23;20060;-81
2022/03/28 09:34:22;;;;;;;26.83;13.27;;;15.80;56.40;;;;;;6139477;23;20010;-81
2022/03/28 09:36:56;;;;;;;28.38;13.43;;;15.90;56.10;;;;;;6165990;23;19997;-79
2022/03/28 09:40:05;;;;;;;34.53;14.10;;;15.90;55.30;;;;;;6165112;23;20239;-79
2022/03/28 09:42:46;;;;;;;29.50;13.43;;;16.00;56.30;;;;;;6163331;23;20001;-80
2022/03/28 09:45:26;;;;;;;26.98;13.45;;;16.20;55.20;;;;;;6124506;23;20243;-80
2022/03/28 09:48:07;;;;;;;24.40;13.35;;;16.40;55.30;;;;;;6143724;23;20001;-80
2022/03/28 09:50:45;;;;;;;30.33;13.38;;;16.60;55.70;;;;;;6138758;23;20006;-81
2022/03/28 09:53:37;;;;;;;26.95;13.82;;;16.60;55.80;;;;;;6164312;23;20016;-80
2022/03/28 09:56:54;;;;;;;31.35;13.13;;;16.80;56.00;;;;;;6140206;23;20044;-81
2022/03/28 09:59:49;;;;;;;41.63;14.10;;;16.90;55.80;;;;;;6138318;23;20029;-81
2022/03/28 10:26:47;;;;;;;31.17;13.70;;;18.50;54.70;;;;;;6104151;23;20180;-81
2022/03/28 10:33:54;;;;;;;26.30;13.35;;;18.80;53.80;;;;;;6068952;23;20041;-81
2022/03/28 10:36:32;;;;;;;22.92;13.13;;;19.00;53.20;;;;;;6077978;23;20010;-80
2022/03/28 10:39:38;;;;;;;26.92;13.68;;;19.00;53.00;;;;;;6109365;23;20006;-80
2022/03/28 10:42:45;;;;;;;;;;;;;;;;;;;;;
2022/03/28 10:46:02;;;;;;;26.85;13.82;;;19.50;51.90;;;;;;6133059;23;20065;-80
2022/03/28 10:49:21;;;;;;;;;;;;;;;;;;;;;
2022/03/28 10:52:42;;;;;;;28.77;14.23;;;19.90;51.30;;;;;;6079248;23;20033;-80
2022/03/28 10:55:43;;;;;;;;;;;;;;;;;;;;;
2022/03/28 10:58:41;;;;;;;26.85;13.70;;;20.40;51.20;;;;;;6085909;23;20026;-82
2022/03/28 11:01:36;;;;;;;28.67;14.00;;;20.60;50.10;;;;;;6084649;23;20033;-82
2022/03/28 11:04:42;;;;;;;22.35;13.48;;;20.80;49.30;;;;;;6131898;23;20286;-81
2022/03/28 11:07:42;;;;;;;19.98;11.98;;;21.10;48.60;;;;;;6131986;23;20299;-82
2022/03/28 11:10:36;;;;;;;20.92;12.48;;;21.30;47.80;;;;;;6105212;23;20010;-81
2022/03/28 11:13:16;;;;;;;30.77;13.25;;;22.00;46.80;;;;;;6129379;23;20017;-81
2022/03/28 11:16:09;;;;;;;21.50;13.05;;;23.00;45.20;;;;;;6118149;23;20024;-82
2022/03/28 11:18:35;;;;;;;21.55;13.20;;;23.80;44.70;;;;;;6107952;23;20065;-79
2022/03/28 11:21:14;;;;;;;22.38;13.35;;;24.60;43.80;;;;;;6108508;23;20069;-82
2022/03/28 11:24:06;;;;;;;20.40;12.52;;;25.40;43.10;;;;;;6108147;23;20221;-79
2022/03/28 11:27:48;;;;;;;20.63;12.73;;;26.30;42.70;;;;;;6222519;23;20272;-80
2022/03/28 11:31:06;;;;;;;;;;;;;;;;;;;;;
2022/03/28 11:37:54;;;;;;;21.42;13.15;;;28.00;40.60;;;;;;6240919;23;20087;-81
2022/03/28 11:45:43;;;;;;;17.85;11.65;;;29.00;39.70;;;;;;6161903;23;20057;-82
2022/03/28 11:52:51;;;;;;;17.98;12.43;;;30.80;38.40;;;;;;6107701;23;20025;-80
2022/03/28 11:55:47;;;;;;;15.25;11.95;;;31.40;38.00;;;;;;6060939;23;20027;-80
2022/03/28 12:06:34;;;;;;;18.58;12.25;;;32.50;36.80;;;;;;5989901;24;20171;-82
2022/03/28 12:13:18;;;;;;;15.32;12.23;;;33.30;36.30;;;;;;5974722;24;20003;-81
2022/03/28 12:16:09;;;;;;;17.73;12.38;;;33.90;36.40;;;;;;6045465;23;20015;-80
2022/03/28 12:19:25;;;;;;;18.50;13.07;;;34.30;36.30;;;;;;6004543;23;20018;-81
2022/03/28 12:22:30;;;;;;;20.42;13.93;;;34.30;36.20;;;;;;6050292;23;20030;-81
2022/03/28 12:29:44;;;;;;;19.08;12.93;;;34.70;36.10;;;;;;6104177;23;20033;-81
2022/03/28 12:32:17;;;;;;;20.17;13.05;;;34.70;36.40;;;;;;6104565;23;20038;-81
2022/03/28 12:35:58;;;;;;;18.77;13.30;;;35.30;36.40;;;;;;6104320;23;20044;-81
2022/03/28 12:38:56;;;;;;;;;;;;;;;;;;;;;
2022/03/28 12:42:00;;;;;;;23.17;13.80;;;36.00;35.90;;;;;;6162648;23;20072;-81
2022/03/28 12:45:11;;;;;;;18.17;13.35;;;35.70;36.50;;;;;;6147038;23;20149;-80
2022/03/28 12:51:40;;;;;;;17.35;12.35;;;35.70;36.00;;;;;;6151884;23;20602;-80
2022/03/28 12:54:20;;;;;;;18.20;12.18;;;36.00;35.70;;;;;;6138556;23;20103;-80
2022/03/28 12:57:25;;;;;;;14.93;11.27;;;37.20;35.70;;;;;;6138804;23;20325;-79
2022/03/28 13:00:26;;;;;;;;;;;;;;;;;;;;;
2022/03/28 13:03:30;;;;;;;15.77;10.60;;;37.80;34.90;;;;;;6098641;23;20036;-81
2022/03/28 13:06:13;;;;;;;16.65;11.93;;;37.20;35.10;;;;;;6213057;23;20008;-81
2022/03/28 13:12:47;;;;;;;15.25;11.32;;;36.40;34.90;;;;;;6253603;23;20011;-81
2022/03/28 13:15:21;;;;;;;16.67;11.60;;;36.90;35.10;;;;;;6220738;23;20068;-81
2022/03/28 13:51:41;;;;;;;12.73;9.10;;;40.70;33.10;;;;;;6114849;23;20012;-80
2022/03/28 13:54:06;;;;;;;12.00;8.93;;;41.50;32.80;;;;;;6244431;23;20004;-81
2022/03/28 13:56:36;;;;;;;15.88;9.73;;;41.00;32.80;;;;;;6229100;23;20008;-81
2022/03/28 14:06:20;;;;;;;13.52;9.10;;;38.90;33.60;;;;;;6252810;22;20008;-80
2022/03/28 14:08:48;;;;;;;13.07;8.85;;;39.30;32.90;;;;;;6227332;23;20008;-80
2022/03/28 14:11:14;;;;;;;12.55;9.43;;;39.70;32.70;;;;;;6228614;23;20304;-79
2022/03/28 14:13:40;;;;;;;10.98;8.90;;;39.60;32.80;;;;;;6232403;23;20020;-76
2022/03/28 14:16:06;;;;;;;12.45;9.85;;;39.60;32.50;;;;;;6252925;22;20012;-79
2022/03/28 14:18:38;;;;;;;10.85;8.73;;;39.90;32.50;;;;;;6255032;23;20011;-78
2022/03/28 14:21:04;;;;;;;12.00;9.30;;;39.80;32.30;;;;;;6228440;23;20167;-80
2022/03/28 14:51:11;;;;;;;9.23;7.80;;;40.80;30.80;;;;;;5868896;24;20371;-80
2022/03/28 14:57:47;;;;;;;12.13;7.93;;;40.00;31.00;;;;;;5878198;24;20050;-80
2022/03/28 15:00:28;;;;;;;11.13;8.10;;;39.70;31.30;;;;;;5912512;23;20317;-80
2022/03/28 15:02:54;;;;;;;10.55;7.75;;;39.30;31.10;;;;;;6009232;23;20011;-80
2022/03/28 15:05:50;;;;;;;10.20;7.72;;;39.30;31.30;;;;;;6020939;23;19995;-79
2022/03/28 15:08:19;;;;;;;10.38;7.25;;;39.10;31.60;;;;;;6047181;23;20010;-79
2022/03/28 15:10:48;;;;;;;13.32;7.80;;;38.60;31.20;;;;;;6053907;23;20186;-79
2022/03/28 15:13:16;;;;;;;10.30;7.75;;;38.60;31.10;;;;;;6054172;23;20296;-78
2022/03/28 15:15:58;;;;;;;11.05;8.50;;;38.20;31.50;;;;;;6085232;23;20090;-81
2022/03/28 15:18:49;;;;;;;13.48;8.27;;;36.40;31.80;;;;;;6079893;23;20066;-80
2022/03/28 15:21:16;;;;;;;11.07;7.85;;;36.10;32.20;;;;;;6078400;23;20018;-81
2022/03/28 15:23:51;;;;;;;13.63;8.77;;;35.70;32.10;;;;;;6101727;23;20310;-82
2022/03/28 15:26:55;;;;;;;11.73;8.18;;;34.70;32.60;;;;;;6193002;23;20008;-80
2022/03/28 15:29:21;;;;;;;12.15;8.15;;;33.40;33.10;;;;;;6131552;23;20033;-80
2022/03/28 15:31:47;;;;;;;13.60;8.00;;;31.80;33.70;;;;;;6129832;23;20117;-80
2022/03/28 15:34:16;;;;;;;13.02;8.23;;;30.70;34.30;;;;;;6131132;23;20013;-82
2022/03/28 15:40:57;;;;;;;10.68;7.30;;;28.80;35.20;;;;;;6101436;23;20070;-79
2022/03/28 15:43:28;;;;;;;13.73;8.65;;;27.90;36.10;;;;;;6077839;23;20017;-79
2022/03/28 15:46:00;;;;;;;10.70;7.75;;;27.40;36.50;;;;;;6077589;23;20014;-79
2022/03/28 15:48:28;;;;;;;11.85;7.93;;;27.30;36.70;;;;;;6081169;23;20022;-80
2022/03/28 15:50:55;;;;;;;16.25;9.13;;;27.10;36.50;;;;;;6108321;23;20052;-80
2022/03/28 15:53:47;;;;;;;11.98;8.13;;;26.80;36.70;;;;;;6157957;23;20326;-80
2022/03/28 15:56:18;;;;;;;12.43;8.20;;;26.40;37.00;;;;;;6160818;23;20037;-79
2022/03/28 15:58:44;;;;;;;12.02;7.90;;;26.10;37.40;;;;;;6135948;23;20280;-81
2022/03/28 16:10:30;;;;;;;10.77;7.07;;;26.60;37.30;;;;;;6135940;22;20017;-81
2022/03/28 16:12:56;;;;;;;12.32;7.50;;;27.20;36.60;;;;;;6207737;23;20020;-81
2022/03/28 16:15:22;;;;;;;11.38;7.47;;;27.70;36.50;;;;;;6168800;23;20056;-81
2022/03/28 16:17:54;;;;;;;11.32;7.07;;;28.50;36.10;;;;;;6192561;23;20055;-81
2022/03/28 16:20:21;;;;;;;10.93;7.07;;;29.50;36.20;;;;;;6192664;23;20040;-81
2022/03/28 16:23:24;;;;;;;13.10;8.38;;;30.60;35.70;;;;;;6166716;23;20016;-80
2022/03/28 16:26:09;;;;;;;11.85;7.75;;;30.00;34.70;;;;;;6164699;23;20032;-81
2022/03/28 16:29:26;;;;;;;10.57;7.27;;;28.50;35.40;;;;;;6168598;23;20172;-79
2022/03/28 16:32:02;;;;;;;11.30;7.07;;;27.70;36.10;;;;;;6141825;23;20400;-81
2022/03/28 16:34:28;;;;;;;11.35;7.03;;;27.10;36.80;;;;;;6168581;23;20005;-80
2022/03/28 16:36:54;;;;;;;12.10;7.18;;;27.10;36.70;;;;;;6192707;23;20295;-79
2022/03/28 16:39:26;;;;;;;11.93;7.90;;;27.60;37.00;;;;;;6191411;23;20001;-80
2022/03/28 16:41:52;;;;;;;11.27;7.10;;;28.40;36.30;;;;;;6191076;23;20004;-80
2022/03/28 16:44:18;;;;;;;12.10;7.50;;;28.80;36.40;;;;;;6192797;23;20316;-81
2022/03/28 16:46:44;;;;;;;10.43;6.75;;;29.00;35.90;;;;;;6191128;23;20211;-82
2022/03/28 16:49:09;;;;;;;10.23;6.70;;;28.70;36.10;;;;;;6194349;23;20021;-80
2022/03/28 16:51:37;;;;;;;10.70;6.38;;;28.40;36.20;;;;;;6191269;23;20009;-81
2022/03/28 16:54:03;;;;;;;10.63;7.10;;;27.80;36.00;;;;;;6192054;23;20194;-80
2022/03/28 16:56:29;;;;;;;13.23;7.00;;;27.10;36.80;;;;;;6167065;23;20012;-79
2022/03/28 16:58:57;;;;;;;11.60;6.15;;;26.40;37.10;;;;;;6193474;23;20009;-81
2022/03/28 17:01:26;;;;;;;12.25;7.15;;;25.90;37.80;;;;;;6193344;23;20056;-82
2022/03/28 17:03:53;;;;;;;10.27;6.00;;;25.50;38.00;;;;;;6168664;23;20013;-84
2022/03/28 17:06:24;;;;;;;9.57;6.03;;;25.00;38.50;;;;;;6169272;23;20020;-79
2022/03/28 17:08:53;;;;;;;10.48;6.53;;;24.60;39.30;;;;;;6194639;23;20291;-81
2022/03/28 17:11:22;;;;;;;;;;;24.20;39.10;;;;;;6186215;23;20238;-82
2022/03/28 17:13:49;;;;;;;9.98;6.28;;;23.60;39.70;;;;;;6197869;23;19908;-81
2022/03/28 17:16:15;;;;;;;10.25;6.25;;;23.20;40.10;;;;;;6222755;23;20312;-79
2022/03/28 17:18:46;;;;;;;11.55;6.35;;;22.80;40.80;;;;;;6225048;23;20050;-81
2022/03/28 17:21:15;;;;;;;12.35;7.05;;;22.50;40.90;;;;;;6198353;23;20183;-81
2022/03/28 17:23:40;;;;;;;12.35;6.78;;;22.30;41.90;;;;;;6223821;23;19996;-79
2022/03/28 17:26:07;;;;;;;11.93;7.13;;;22.00;41.30;;;;;;6223012;23;20004;-82
2022/03/28 17:28:33;;;;;;;11.55;6.57;;;21.60;41.90;;;;;;6223126;23;20005;-79
2022/03/28 17:31:24;;;;;;;9.60;6.15;;;21.40;42.20;;;;;;6224023;23;20024;-79
2022/03/28 17:34:47;;;;;;;13.48;6.68;;;21.10;42.50;;;;;;6223571;23;20009;-81
2022/03/28 17:37:12;;;;;;;11.63;6.60;;;20.90;43.20;;;;;;6133059;23;20121;-82
2022/03/28 17:39:39;;;;;;;13.02;6.20;;;20.60;43.80;;;;;;6138949;23;20021;-79
2022/03/28 17:42:05;;;;;;;10.10;5.95;;;20.40;43.40;;;;;;6107914;23;19998;-82
2022/03/28 17:44:31;;;;;;;10.52;6.22;;;20.30;44.30;;;;;;6110891;23;20117;-81
2022/03/28 17:46:57;;;;;;;10.18;6.00;;;20.10;44.10;;;;;;6106575;23;20017;-80
2022/03/28 17:50:09;;;;;;;11.70;6.57;;;19.90;44.60;;;;;;6107933;23;20320;-79
2022/03/28 17:52:35;;;;;;;10.40;5.88;;;19.80;44.70;;;;;;6108030;23;20021;-84
2022/03/28 17:55:01;;;;;;;9.45;6.47;;;19.60;45.00;;;;;;6107643;23;20009;-79
2022/03/28 17:58:22;;;;;;;10.25;5.40;;;19.40;45.10;;;;;;6107461;23;19998;-83
2022/03/28 18:23:18;;;;;;;12.55;8.23;;;17.70;48.80;;;;;;6187148;22;20168;-82
2022/03/28 18:25:56;;;;;;;12.25;7.38;;;17.60;49.20;;;;;;6220279;23;20001;-82
2022/03/28 18:28:23;;;;;;;13.73;7.68;;;17.50;49.00;;;;;;6173392;23;20001;-83
2022/03/28 18:30:51;;;;;;;12.63;7.70;;;17.40;49.20;;;;;;6171061;23;20024;-83
2022/03/28 18:33:18;;;;;;;14.80;8.10;;;17.30;49.40;;;;;;6148858;23;20247;-81
2022/03/28 18:35:46;;;;;;;14.35;7.95;;;17.20;49.80;;;;;;6196134;23;20024;-83
2022/03/28 18:38:42;;;;;;;16.00;8.50;;;17.10;50.00;;;;;;6116133;23;20009;-80
2022/03/28 18:41:14;;;;;;;16.08;8.85;;;17.00;50.40;;;;;;6144596;23;20351;-82
2022/03/28 18:43:42;;;;;;;13.65;7.95;;;16.80;50.70;;;;;;6141047;23;20081;-82
2022/03/28 18:46:10;;;;;;;13.70;8.07;;;16.60;51.10;;;;;;6166034;23;20017;-85
2022/03/28 18:48:38;;;;;;;13.90;9.10;;;16.50;51.50;;;;;;6143187;23;20025;-82
2022/03/28 18:51:04;;;;;;;14.38;9.68;;;16.40;51.70;;;;;;6188509;23;20117;-83
2022/03/28 19:02:29;;;;;;;14.07;8.93;;;15.90;52.80;;;;;;5911550;24;20090;-83
2022/03/28 19:19:50;;;;;;;17.75;11.10;;;15.20;53.90;;;;;;5866117;24;20069;-80
2022/03/28 19:22:17;;;;;;;17.92;11.15;;;15.10;54.40;;;;;;5878942;24;20009;-82
2022/03/28 19:56:59;;;;;;;16.55;9.52;;;14.00;57.00;;;;;;6190850;23;20025;-81
2022/03/28 19:59:25;;;;;;;16.83;10.70;;;13.80;57.60;;;;;;6164878;23;20005;-82
2022/03/28 20:01:51;;;;;;;16.35;9.68;;;13.80;58.20;;;;;;6139632;23;20064;-81
2022/03/28 20:08:08;;;;;;;17.30;10.15;;;13.80;57.90;;;;;;6187170;23;20015;-83
2022/03/28 20:10:55;;;;;;;16.65;9.50;;;13.70;58.40;;;;;;6169084;23;20194;-80
2022/03/28 20:28:38;;;;;;;13.73;9.02;;;13.10;60.20;;;;;;6128372;22;20031;-79
2022/03/28 20:35:07;;;;;;;15.45;9.50;;;13.10;60.00;;;;;;6138790;23;20009;-80
2022/03/28 22:08:02;;;;;;;15.07;8.95;;;11.30;65.30;;;;;;5796987;24;20046;-81
2022/03/28 22:10:28;;;;;;;15.38;9.10;;;11.20;66.60;;;;;;5801286;24;20011;-80
2022/03/28 22:12:55;;;;;;;13.82;8.10;;;11.30;65.60;;;;;;5824497;24;20022;-83
2022/03/28 22:15:25;;;;;;;15.90;9.10;;;11.30;65.20;;;;;;5799033;24;20092;-79
2022/03/28 22:17:51;;;;;;;17.48;8.70;;;11.30;66.00;;;;;;5802310;24;20203;-79
2022/03/28 22:31:59;;;;;;;16.58;9.07;;;11.20;65.90;;;;;;5853082;24;20151;-81
2022/03/28 22:34:25;;;;;;;13.60;8.48;;;11.10;66.00;;;;;;5987856;23;20237;-79
2022/03/28 22:36:52;;;;;;;15.10;8.57;;;11.10;65.80;;;;;;6200760;23;19995;-81
2022/03/28 22:42:48;;;;;;;16.67;8.82;;;11.10;66.50;;;;;;6191527;23;20040;-84
2022/03/28 22:45:18;;;;;;;18.00;9.93;;;11.00;67.40;;;;;;6163424;23;20053;-80
2022/03/28 22:47:48;;;;;;;15.02;8.32;;;10.90;68.50;;;;;;6142602;23;19997;-82
2022/03/28 22:50:14;;;;;;;15.30;9.35;;;10.80;67.90;;;;;;6191173;23;20195;-83
2022/03/28 22:52:41;;;;;;;18.27;9.15;;;10.80;67.50;;;;;;6216271;23;20031;-80
2022/03/28 22:55:13;;;;;;;18.15;8.85;;;10.80;68.10;;;;;;6190634;23;20291;-82
2022/03/28 22:57:41;;;;;;;14.57;8.35;;;10.80;68.00;;;;;;6141724;23;20001;-84
2022/03/28 23:00:10;;;;;;;;;;;10.70;67.70;;;;;;6138955;23;20064;-82
2022/03/28 23:02:38;;;;;;;14.88;8.85;;;10.70;67.60;;;;;;6166419;23;19900;-80
2022/03/28 23:05:05;;;;;;;14.52;8.63;;;10.70;67.70;;;;;;6141357;23;20013;-80
2022/03/28 23:07:32;;;;;;;17.15;8.95;;;10.70;67.60;;;;;;6142213;23;20295;-83
2022/03/28 23:09:59;;;;;;;16.20;9.68;;;10.60;69.40;;;;;;6142293;23;20009;-82
2022/03/28 23:12:28;;;;;;;16.60;9.68;;;10.50;69.70;;;;;;6215569;23;20021;-83
2022/03/28 23:14:55;;;;;;;19.30;9.05;;;10.50;70.30;;;;;;6191264;23;20012;-80
2022/03/28 23:17:22;;;;;;;15.32;8.52;;;10.40;70.10;;;;;;6214176;22;20017;-81
2022/03/28 23:19:48;;;;;;;17.58;9.38;;;10.40;70.00;;;;;;6216842;23;20009;-82
2022/03/28 23:22:15;;;;;;;17.85;9.57;;;10.30;70.80;;;;;;6141567;23;20056;-80
2022/03/28 23:24:42;;;;;;;17.15;10.07;;;10.30;71.70;;;;;;6142172;23;20005;-80
2022/03/28 23:27:09;;;;;;;16.67;9.90;;;10.30;69.50;;;;;;6190753;23;20020;-83
2022/03/28 23:29:36;;;;;;;16.63;9.23;;;10.30;70.70;;;;;;6142163;23;20071;-82
2022/03/28 23:32:16;;;;;;;17.63;9.18;;;10.20;70.10;;;;;;6164994;23;20068;-80
2022/03/28 23:34:43;;;;;;;20.33;10.68;;;10.20;70.50;;;;;;6166859;23;20028;-81
2022/03/28 23:37:10;;;;;;;15.35;9.68;;;10.20;70.50;;;;;;6165848;23;20064;-82
2022/03/28 23:39:37;;;;;;;14.57;8.50;;;10.20;69.70;;;;;;6143403;23;20083;-81
2022/03/28 23:42:05;;;;;;;16.40;8.88;;;10.10;69.30;;;;;;6216231;23;19997;-81
2022/03/28 23:44:37;;;;;;;18.15;9.85;;;10.10;70.30;;;;;;6166195;23;20005;-81
2022/03/28 23:47:05;;;;;;;16.35;9.20;;;10.10;70.70;;;;;;6162565;23;20321;-81
2022/03/28 23:49:32;;;;;;;18.90;9.57;;;10.10;70.60;;;;;;6141529;23;20151;-84
2022/03/28 23:52:00;;;;;;;15.35;9.07;;;10.00;69.70;;;;;;6140996;23;20198;-80
2022/03/28 23:54:27;;;;;;;19.85;9.38;;;10.00;69.40;;;;;;6165572;23;20017;-82
2022/03/28 23:56:58;;;;;;;16.83;9.35;;;10.00;71.20;;;;;;6141790;23;20001;-83
2022/03/28 23:59:25;;;;;;;16.88;9.75;;;10.00;70.80;;;;;;6215253;23;20001;-83
